sensor_id;sensor_type;location;lat;lon;timestamp;pressure;altitude;pressure_sealevel;temperature
22828;BMP180;11580;52.562;13.418;2022-07-12T00:02:02;101322.00;;;18.90
22828;BMP180;11580;52.562;13.418;2022-07-12T00:04:29;101324.00;;;18.90
22828;BMP180;11580;52.562;13.418;2022-07-12T00:06:56;101328.00;;;18.80
22828;BMP180;11580;52.562;13.418;2022-07-12T00:09:23;101331.00;;;18.80
22828;BMP180;11580;52.562;13.418;2022-07-12T00:11:51;101322.00;;;18.80
22828;BMP180;11580;52.562;13.418;2022-07-12T00:14:19;101330.00;;;18.80
22828;BMP180;11580;52.562;13.418;2022-07-12T00:16:46;101322.00;;;18.70
22828;BMP180;11580;52.562;13.418;2022-07-12T00:19:14;101331.00;;;18.70
22828;BMP180;11580;52.562;13.418;2022-07-12T00:21:41;101329.00;;;18.70
22828;BMP180;11580;52.562;13.418;2022-07-12T00:24:08;101331.00;;;18.70
22828;BMP180;11580;52.562;13.418;2022-07-12T00:26:35;101333.00;;;18.70
22828;BMP180;11580;52.562;13.418;2022-07-12T00:29:03;101336.00;;;18.60
22828;BMP180;11580;52.562;13.418;2022-07-12T00:31:31;101340.00;;;18.60
22828;BMP180;11580;52.562;13.418;2022-07-12T00:33:58;101341.00;;;18.60
22828;BMP180;11580;52.562;13.418;2022-07-12T00:36:26;101334.00;;;18.60
22828;BMP180;11580;52.562;13.418;2022-07-12T00:38:53;101335.00;;;18.60
22828;BMP180;11580;52.562;13.418;2022-07-12T00:41:22;101339.00;;;18.50
22828;BMP180;11580;52.562;13.418;2022-07-12T00:43:49;101339.00;;;18.50
22828;BMP180;11580;52.562;13.418;2022-07-12T00:46:22;101340.00;;;18.50
22828;BMP180;11580;52.562;13.418;2022-07-12T00:48:51;101348.00;;;18.50
22828;BMP180;11580;52.562;13.418;2022-07-12T00:51:19;101342.00;;;18.50
22828;BMP180;11580;52.562;13.418;2022-07-12T00:53:46;101338.00;;;18.50
22828;BMP180;11580;52.562;13.418;2022-07-12T00:56:14;101340.00;;;18.50
22828;BMP180;11580;52.562;13.418;2022-07-12T00:58:42;101341.00;;;18.40
22828;BMP180;11580;52.562;13.418;2022-07-12T01:01:10;101339.00;;;18.40
22828;BMP180;11580;52.562;13.418;2022-07-12T01:03:38;101344.00;;;18.40
22828;BMP180;11580;52.562;13.418;2022-07-12T01:06:08;101343.00;;;18.40
22828;BMP180;11580;52.562;13.418;2022-07-12T01:08:36;101340.00;;;18.30
22828;BMP180;11580;52.562;13.418;2022-07-12T01:11:04;101347.00;;;18.30
22828;BMP180;11580;52.562;13.418;2022-07-12T01:13:32;101344.00;;;18.30
22828;BMP180;11580;52.562;13.418;2022-07-12T01:16:00;101342.00;;;18.30
22828;BMP180;11580;52.562;13.418;2022-07-12T01:18:28;101338.00;;;18.20
22828;BMP180;11580;52.562;13.418;2022-07-12T01:20:56;101346.00;;;18.20
22828;BMP180;11580;52.562;13.418;2022-07-12T01:23:25;101342.00;;;18.20
22828;BMP180;11580;52.562;13.418;2022-07-12T01:25:52;101338.00;;;18.10
22828;BMP180;11580;52.562;13.418;2022-07-12T01:28:21;101341.00;;;18.20
22828;BMP180;11580;52.562;13.418;2022-07-12T01:30:48;101343.00;;;18.20
22828;BMP180;11580;52.562;13.418;2022-07-12T01:33:16;101340.00;;;18.10
22828;BMP180;11580;52.562;13.418;2022-07-12T01:35:44;101341.00;;;18.10
22828;BMP180;11580;52.562;13.418;2022-07-12T01:38:13;101320.00;;;18.10
22828;BMP180;11580;52.562;13.418;2022-07-12T01:40:41;101352.00;;;18.10
22828;BMP180;11580;52.562;13.418;2022-07-12T01:43:11;101350.00;;;18.00
22828;BMP180;11580;52.562;13.418;2022-07-12T01:45:38;101346.00;;;18.00
22828;BMP180;11580;52.562;13.418;2022-07-12T01:48:05;101351.00;;;18.00
22828;BMP180;11580;52.562;13.418;2022-07-12T01:50:33;101348.00;;;18.00
22828;BMP180;11580;52.562;13.418;2022-07-12T01:53:01;101343.00;;;18.00
22828;BMP180;11580;52.562;13.418;2022-07-12T01:55:30;101346.00;;;17.90
22828;BMP180;11580;52.562;13.418;2022-07-12T01:58:00;101342.00;;;17.90
22828;BMP180;11580;52.562;13.418;2022-07-12T02:00:28;101343.00;;;17.90
22828;BMP180;11580;52.562;13.418;2022-07-12T02:02:56;101343.00;;;17.90
22828;BMP180;11580;52.562;13.418;2022-07-12T02:05:23;101347.00;;;17.90
22828;BMP180;11580;52.562;13.418;2022-07-12T02:07:51;101349.00;;;17.80
22828;BMP180;11580;52.562;13.418;2022-07-12T02:10:19;101351.00;;;17.80
22828;BMP180;11580;52.562;13.418;2022-07-12T02:12:46;101358.00;;;17.80
22828;BMP180;11580;52.562;13.418;2022-07-12T02:15:15;101358.00;;;17.80
22828;BMP180;11580;52.562;13.418;2022-07-12T02:17:42;101355.00;;;17.80
22828;BMP180;11580;52.562;13.418;2022-07-12T02:20:10;101327.00;;;17.70
22828;BMP180;11580;52.562;13.418;2022-07-12T02:22:38;101358.00;;;17.70
22828;BMP180;11580;52.562;13.418;2022-07-12T02:25:06;101360.00;;;17.70
22828;BMP180;11580;52.562;13.418;2022-07-12T02:27:34;101352.00;;;17.70
22828;BMP180;11580;52.562;13.418;2022-07-12T02:30:01;101356.00;;;17.70
22828;BMP180;11580;52.562;13.418;2022-07-12T02:32:30;101364.00;;;17.60
22828;BMP180;11580;52.562;13.418;2022-07-12T02:34:57;101371.00;;;17.60
22828;BMP180;11580;52.562;13.418;2022-07-12T02:37:25;101363.00;;;17.60
22828;BMP180;11580;52.562;13.418;2022-07-12T02:39:52;101358.00;;;17.60
22828;BMP180;11580;52.562;13.418;2022-07-12T02:42:40;101350.00;;;17.60
22828;BMP180;11580;52.562;13.418;2022-07-12T02:45:08;101351.00;;;17.60
22828;BMP180;11580;52.562;13.418;2022-07-12T02:47:38;101349.00;;;17.50
22828;BMP180;11580;52.562;13.418;2022-07-12T02:50:07;101357.00;;;17.60
22828;BMP180;11580;52.562;13.418;2022-07-12T02:52:34;101351.00;;;17.50
22828;BMP180;11580;52.562;13.418;2022-07-12T02:55:01;101350.00;;;17.50
22828;BMP180;11580;52.562;13.418;2022-07-12T02:57:29;101357.00;;;17.50
22828;BMP180;11580;52.562;13.418;2022-07-12T02:59:56;101362.00;;;17.50
22828;BMP180;11580;52.562;13.418;2022-07-12T03:02:23;101358.00;;;17.50
22828;BMP180;11580;52.562;13.418;2022-07-12T03:04:52;101365.00;;;17.60
22828;BMP180;11580;52.562;13.418;2022-07-12T03:07:19;101371.00;;;17.60
22828;BMP180;11580;52.562;13.418;2022-07-12T03:09:46;101377.00;;;17.80
22828;BMP180;11580;52.562;13.418;2022-07-12T03:12:13;101376.00;;;17.90
22828;BMP180;11580;52.562;13.418;2022-07-12T03:14:40;101373.00;;;18.10
22828;BMP180;11580;52.562;13.418;2022-07-12T03:17:08;101387.00;;;18.40
22828;BMP180;11580;52.562;13.418;2022-07-12T03:19:35;101391.00;;;18.70
22828;BMP180;11580;52.562;13.418;2022-07-12T03:22:04;101395.00;;;19.00
22828;BMP180;11580;52.562;13.418;2022-07-12T03:24:31;101392.00;;;19.30
22828;BMP180;11580;52.562;13.418;2022-07-12T03:26:58;101394.00;;;19.70
22828;BMP180;11580;52.562;13.418;2022-07-12T03:29:26;101401.00;;;20.10
22828;BMP180;11580;52.562;13.418;2022-07-12T03:31:53;101399.00;;;20.40
22828;BMP180;11580;52.562;13.418;2022-07-12T03:34:20;101407.00;;;20.80
22828;BMP180;11580;52.562;13.418;2022-07-12T03:36:47;101400.00;;;21.20
22828;BMP180;11580;52.562;13.418;2022-07-12T03:39:16;101400.00;;;21.60
22828;BMP180;11580;52.562;13.418;2022-07-12T03:41:43;101411.00;;;22.00
22828;BMP180;11580;52.562;13.418;2022-07-12T03:44:10;101417.00;;;22.40
22828;BMP180;11580;52.562;13.418;2022-07-12T03:46:37;101423.00;;;22.90
22828;BMP180;11580;52.562;13.418;2022-07-12T03:49:05;101420.00;;;23.30
22828;BMP180;11580;52.562;13.418;2022-07-12T03:51:32;101431.00;;;23.70
22828;BMP180;11580;52.562;13.418;2022-07-12T03:53:59;101441.00;;;24.10
22828;BMP180;11580;52.562;13.418;2022-07-12T03:56:28;101438.00;;;24.50
22828;BMP180;11580;52.562;13.418;2022-07-12T03:59:12;101443.00;;;24.90
22828;BMP180;11580;52.562;13.418;2022-07-12T04:01:40;101442.00;;;25.30
22828;BMP180;11580;52.562;13.418;2022-07-12T04:04:09;101446.00;;;25.70
22828;BMP180;11580;52.562;13.418;2022-07-12T04:06:36;101454.00;;;26.00
22828;BMP180;11580;52.562;13.418;2022-07-12T04:09:04;101447.00;;;26.40
22828;BMP180;11580;52.562;13.418;2022-07-12T04:11:34;101450.00;;;26.60
22828;BMP180;11580;52.562;13.418;2022-07-12T04:14:01;101446.00;;;27.10
22828;BMP180;11580;52.562;13.418;2022-07-12T04:16:28;101454.00;;;27.40
22828;BMP180;11580;52.562;13.418;2022-07-12T04:18:55;101455.00;;;27.70
22828;BMP180;11580;52.562;13.418;2022-07-12T04:21:23;101461.00;;;28.10
22828;BMP180;11580;52.562;13.418;2022-07-12T04:23:50;101458.00;;;28.40
22828;BMP180;11580;52.562;13.418;2022-07-12T04:26:17;101455.00;;;28.80
22828;BMP180;11580;52.562;13.418;2022-07-12T04:28:46;101458.00;;;29.10
22828;BMP180;11580;52.562;13.418;2022-07-12T04:31:13;101458.00;;;29.40
22828;BMP180;11580;52.562;13.418;2022-07-12T04:33:40;101454.00;;;29.70
22828;BMP180;11580;52.562;13.418;2022-07-12T04:36:07;101458.00;;;29.90
22828;BMP180;11580;52.562;13.418;2022-07-12T04:38:35;101464.00;;;30.20
22828;BMP180;11580;52.562;13.418;2022-07-12T04:41:02;101463.00;;;30.40
22828;BMP180;11580;52.562;13.418;2022-07-12T04:43:29;101472.00;;;30.60
22828;BMP180;11580;52.562;13.418;2022-07-12T04:46:05;101475.00;;;30.70
22828;BMP180;11580;52.562;13.418;2022-07-12T04:48:33;101474.00;;;30.70
22828;BMP180;11580;52.562;13.418;2022-07-12T04:51:00;101469.00;;;30.70
22828;BMP180;11580;52.562;13.418;2022-07-12T04:53:28;101478.00;;;30.60
22828;BMP180;11580;52.562;13.418;2022-07-12T04:55:56;101467.00;;;30.60
22828;BMP180;11580;52.562;13.418;2022-07-12T04:58:24;101476.00;;;30.40
22828;BMP180;11580;52.562;13.418;2022-07-12T05:00:51;101475.00;;;30.10
22828;BMP180;11580;52.562;13.418;2022-07-12T05:03:20;101467.00;;;29.80
22828;BMP180;11580;52.562;13.418;2022-07-12T05:05:54;101481.00;;;29.60
22828;BMP180;11580;52.562;13.418;2022-07-12T05:08:21;101475.00;;;29.30
22828;BMP180;11580;52.562;13.418;2022-07-12T05:10:49;101482.00;;;29.00
22828;BMP180;11580;52.562;13.418;2022-07-12T05:13:16;101477.00;;;28.70
22828;BMP180;11580;52.562;13.418;2022-07-12T05:15:43;101486.00;;;28.50
22828;BMP180;11580;52.562;13.418;2022-07-12T05:18:10;101484.00;;;28.20
22828;BMP180;11580;52.562;13.418;2022-07-12T05:20:40;101482.00;;;27.80
22828;BMP180;11580;52.562;13.418;2022-07-12T05:23:07;101482.00;;;27.50
22828;BMP180;11580;52.562;13.418;2022-07-12T05:25:34;101479.00;;;27.20
22828;BMP180;11580;52.562;13.418;2022-07-12T05:28:02;101481.00;;;26.90
22828;BMP180;11580;52.562;13.418;2022-07-12T05:30:30;101477.00;;;26.60
22828;BMP180;11580;52.562;13.418;2022-07-12T05:32:57;101480.00;;;26.30
22828;BMP180;11580;52.562;13.418;2022-07-12T05:35:24;101482.00;;;26.10
22828;BMP180;11580;52.562;13.418;2022-07-12T05:37:53;101483.00;;;25.90
22828;BMP180;11580;52.562;13.418;2022-07-12T05:40:20;101482.00;;;25.70
22828;BMP180;11580;52.562;13.418;2022-07-12T05:42:47;101485.00;;;25.50
22828;BMP180;11580;52.562;13.418;2022-07-12T05:45:15;101480.00;;;25.30
22828;BMP180;11580;52.562;13.418;2022-07-12T05:47:42;101486.00;;;25.10
22828;BMP180;11580;52.562;13.418;2022-07-12T05:50:10;101488.00;;;24.90
22828;BMP180;11580;52.562;13.418;2022-07-12T05:52:37;101475.00;;;24.70
22828;BMP180;11580;52.562;13.418;2022-07-12T05:55:23;101479.00;;;24.40
22828;BMP180;11580;52.562;13.418;2022-07-12T05:57:50;101483.00;;;24.30
22828;BMP180;11580;52.562;13.418;2022-07-12T06:00:17;101488.00;;;24.10
22828;BMP180;11580;52.562;13.418;2022-07-12T06:02:44;101500.00;;;23.90
22828;BMP180;11580;52.562;13.418;2022-07-12T06:05:12;101498.00;;;23.70
22828;BMP180;11580;52.562;13.418;2022-07-12T06:07:39;101490.00;;;23.50
22828;BMP180;11580;52.562;13.418;2022-07-12T06:10:07;101496.00;;;23.30
22828;BMP180;11580;52.562;13.418;2022-07-12T06:12:36;101500.00;;;23.10
22828;BMP180;11580;52.562;13.418;2022-07-12T06:15:05;101494.00;;;23.00
22828;BMP180;11580;52.562;13.418;2022-07-12T06:17:34;101491.00;;;22.90
22828;BMP180;11580;52.562;13.418;2022-07-12T06:20:01;101496.00;;;22.80
22828;BMP180;11580;52.562;13.418;2022-07-12T06:22:29;101496.00;;;22.70
22828;BMP180;11580;52.562;13.418;2022-07-12T06:24:56;101498.00;;;22.70
22828;BMP180;11580;52.562;13.418;2022-07-12T06:27:23;101497.00;;;22.60
22828;BMP180;11580;52.562;13.418;2022-07-12T06:29:52;101478.00;;;22.60
22828;BMP180;11580;52.562;13.418;2022-07-12T06:32:19;101499.00;;;22.60
22828;BMP180;11580;52.562;13.418;2022-07-12T06:34:47;101496.00;;;22.60
22828;BMP180;11580;52.562;13.418;2022-07-12T06:37:14;101482.00;;;22.60
22828;BMP180;11580;52.562;13.418;2022-07-12T06:39:41;101498.00;;;22.60
22828;BMP180;11580;52.562;13.418;2022-07-12T06:42:10;101499.00;;;22.60
22828;BMP180;11580;52.562;13.418;2022-07-12T06:44:45;101489.00;;;22.60
22828;BMP180;11580;52.562;13.418;2022-07-12T06:47:14;101488.00;;;22.60
22828;BMP180;11580;52.562;13.418;2022-07-12T06:49:41;101490.00;;;22.60
22828;BMP180;11580;52.562;13.418;2022-07-12T06:52:08;101481.00;;;22.60
22828;BMP180;11580;52.562;13.418;2022-07-12T06:54:36;101480.00;;;22.60
22828;BMP180;11580;52.562;13.418;2022-07-12T06:57:04;101482.00;;;22.60
22828;BMP180;11580;52.562;13.418;2022-07-12T06:59:31;101485.00;;;22.70
22828;BMP180;11580;52.562;13.418;2022-07-12T07:01:59;101482.00;;;22.70
22828;BMP180;11580;52.562;13.418;2022-07-12T07:04:27;101481.00;;;22.70
22828;BMP180;11580;52.562;13.418;2022-07-12T07:06:55;101475.00;;;22.80
22828;BMP180;11580;52.562;13.418;2022-07-12T07:09:22;101480.00;;;22.90
22828;BMP180;11580;52.562;13.418;2022-07-12T07:11:49;101484.00;;;22.90
22828;BMP180;11580;52.562;13.418;2022-07-12T07:14:16;101484.00;;;23.00
22828;BMP180;11580;52.562;13.418;2022-07-12T07:16:44;101483.00;;;23.00
22828;BMP180;11580;52.562;13.418;2022-07-12T07:19:11;101482.00;;;23.10
22828;BMP180;11580;52.562;13.418;2022-07-12T07:21:39;101480.00;;;23.10
22828;BMP180;11580;52.562;13.418;2022-07-12T07:24:07;101475.00;;;23.20
22828;BMP180;11580;52.562;13.418;2022-07-12T07:26:35;101481.00;;;23.30
22828;BMP180;11580;52.562;13.418;2022-07-12T07:29:03;101482.00;;;23.30
22828;BMP180;11580;52.562;13.418;2022-07-12T07:31:47;101482.00;;;23.20
22828;BMP180;11580;52.562;13.418;2022-07-12T07:34:15;101479.00;;;23.40
22828;BMP180;11580;52.562;13.418;2022-07-12T07:36:44;101467.00;;;23.50
22828;BMP180;11580;52.562;13.418;2022-07-12T07:39:11;101464.00;;;23.60
22828;BMP180;11580;52.562;13.418;2022-07-12T07:41:39;101477.00;;;23.60
22828;BMP180;11580;52.562;13.418;2022-07-12T07:44:06;101475.00;;;23.70
22828;BMP180;11580;52.562;13.418;2022-07-12T07:46:33;101473.00;;;23.70
22828;BMP180;11580;52.562;13.418;2022-07-12T07:49:01;101472.00;;;23.80
22828;BMP180;11580;52.562;13.418;2022-07-12T07:51:29;101481.00;;;23.90
22828;BMP180;11580;52.562;13.418;2022-07-12T07:53:58;101472.00;;;23.90
22828;BMP180;11580;52.562;13.418;2022-07-12T07:56:25;101479.00;;;24.00
22828;BMP180;11580;52.562;13.418;2022-07-12T07:58:52;101476.00;;;24.00
22828;BMP180;11580;52.562;13.418;2022-07-12T08:01:20;101475.00;;;24.10
22828;BMP180;11580;52.562;13.418;2022-07-12T08:04:08;101475.00;;;24.10
22828;BMP180;11580;52.562;13.418;2022-07-12T08:06:35;101474.00;;;24.20
22828;BMP180;11580;52.562;13.418;2022-07-12T08:09:04;101470.00;;;24.30
22828;BMP180;11580;52.562;13.418;2022-07-12T08:11:32;101478.00;;;24.30
22828;BMP180;11580;52.562;13.418;2022-07-12T08:13:59;101478.00;;;24.40
22828;BMP180;11580;52.562;13.418;2022-07-12T08:16:27;101472.00;;;24.40
22828;BMP180;11580;52.562;13.418;2022-07-12T08:18:54;101479.00;;;24.50
22828;BMP180;11580;52.562;13.418;2022-07-12T08:21:22;101460.00;;;24.50
22828;BMP180;11580;52.562;13.418;2022-07-12T08:23:50;101474.00;;;24.60
22828;BMP180;11580;52.562;13.418;2022-07-12T08:26:19;101473.00;;;24.60
22828;BMP180;11580;52.562;13.418;2022-07-12T08:28:47;101481.00;;;24.70
22828;BMP180;11580;52.562;13.418;2022-07-12T08:31:14;101480.00;;;24.70
22828;BMP180;11580;52.562;13.418;2022-07-12T08:33:41;101448.00;;;24.80
22828;BMP180;11580;52.562;13.418;2022-07-12T08:36:09;101477.00;;;24.80
22828;BMP180;11580;52.562;13.418;2022-07-12T08:38:37;101479.00;;;24.80
22828;BMP180;11580;52.562;13.418;2022-07-12T08:41:04;101468.00;;;24.80
22828;BMP180;11580;52.562;13.418;2022-07-12T08:43:36;101473.00;;;24.90
22828;BMP180;11580;52.562;13.418;2022-07-12T08:46:04;101494.00;;;24.90
22828;BMP180;11580;52.562;13.418;2022-07-12T08:48:33;101484.00;;;25.00
22828;BMP180;11580;52.562;13.418;2022-07-12T08:51:02;101470.00;;;25.00
22828;BMP180;11580;52.562;13.418;2022-07-12T08:53:31;101471.00;;;25.10
22828;BMP180;11580;52.562;13.418;2022-07-12T08:56:00;101476.00;;;25.10
22828;BMP180;11580;52.562;13.418;2022-07-12T08:58:27;101473.00;;;25.20
22828;BMP180;11580;52.562;13.418;2022-07-12T09:00:56;101475.00;;;25.20
22828;BMP180;11580;52.562;13.418;2022-07-12T09:03:23;101469.00;;;25.30
22828;BMP180;11580;52.562;13.418;2022-07-12T09:05:52;101477.00;;;25.30
22828;BMP180;11580;52.562;13.418;2022-07-12T09:08:30;101473.00;;;25.40
22828;BMP180;11580;52.562;13.418;2022-07-12T09:11:01;101476.00;;;25.40
22828;BMP180;11580;52.562;13.418;2022-07-12T09:13:50;101471.00;;;25.50
22828;BMP180;11580;52.562;13.418;2022-07-12T09:16:21;101473.00;;;25.50
22828;BMP180;11580;52.562;13.418;2022-07-12T09:18:50;101465.00;;;25.60
22828;BMP180;11580;52.562;13.418;2022-07-12T09:21:25;101458.00;;;25.70
22828;BMP180;11580;52.562;13.418;2022-07-12T09:23:55;101460.00;;;25.80
22828;BMP180;11580;52.562;13.418;2022-07-12T09:26:23;101441.00;;;25.90
22828;BMP180;11580;52.562;13.418;2022-07-12T09:28:51;101453.00;;;25.90
22828;BMP180;11580;52.562;13.418;2022-07-12T09:31:20;101467.00;;;26.00
22828;BMP180;11580;52.562;13.418;2022-07-12T09:34:00;101462.00;;;26.10
22828;BMP180;11580;52.562;13.418;2022-07-12T09:36:55;101457.00;;;26.10
22828;BMP180;11580;52.562;13.418;2022-07-12T09:39:23;101459.00;;;26.20
22828;BMP180;11580;52.562;13.418;2022-07-12T09:41:54;101453.00;;;26.30
22828;BMP180;11580;52.562;13.418;2022-07-12T09:44:24;101458.00;;;26.40
22828;BMP180;11580;52.562;13.418;2022-07-12T09:46:54;101460.00;;;26.40
22828;BMP180;11580;52.562;13.418;2022-07-12T09:49:23;101456.00;;;26.50
22828;BMP180;11580;52.562;13.418;2022-07-12T09:51:54;101461.00;;;26.50
22828;BMP180;11580;52.562;13.418;2022-07-12T09:54:26;101461.00;;;26.60
22828;BMP180;11580;52.562;13.418;2022-07-12T09:56:59;101468.00;;;26.60
22828;BMP180;11580;52.562;13.418;2022-07-12T09:59:30;101481.00;;;26.60
22828;BMP180;11580;52.562;13.418;2022-07-12T10:02:03;101464.00;;;26.60
22828;BMP180;11580;52.562;13.418;2022-07-12T10:04:33;101459.00;;;26.70
22828;BMP180;11580;52.562;13.418;2022-07-12T10:07:01;101469.00;;;26.70
22828;BMP180;11580;52.562;13.418;2022-07-12T10:09:29;101462.00;;;26.80
22828;BMP180;11580;52.562;13.418;2022-07-12T10:11:57;101489.00;;;26.80
22828;BMP180;11580;52.562;13.418;2022-07-12T10:14:25;101474.00;;;26.90
22828;BMP180;11580;52.562;13.418;2022-07-12T10:16:53;101461.00;;;27.00
22828;BMP180;11580;52.562;13.418;2022-07-12T10:19:27;101478.00;;;27.10
22828;BMP180;11580;52.562;13.418;2022-07-12T10:21:58;101467.00;;;27.10
22828;BMP180;11580;52.562;13.418;2022-07-12T10:24:45;101472.00;;;27.20
22828;BMP180;11580;52.562;13.418;2022-07-12T10:27:31;101474.00;;;27.30
22828;BMP180;11580;52.562;13.418;2022-07-12T10:30:20;101470.00;;;27.40
22828;BMP180;11580;52.562;13.418;2022-07-12T10:32:50;101473.00;;;27.50
22828;BMP180;11580;52.562;13.418;2022-07-12T10:35:22;101471.00;;;27.60
22828;BMP180;11580;52.562;13.418;2022-07-12T10:38:18;101469.00;;;27.80
22828;BMP180;11580;52.562;13.418;2022-07-12T10:40:48;101448.00;;;27.90
22828;BMP180;11580;52.562;13.418;2022-07-12T10:43:24;101462.00;;;28.10
22828;BMP180;11580;52.562;13.418;2022-07-12T10:46:16;101458.00;;;28.10
22828;BMP180;11580;52.562;13.418;2022-07-12T10:48:46;101465.00;;;28.20
22828;BMP180;11580;52.562;13.418;2022-07-12T10:51:16;101461.00;;;28.20
22828;BMP180;11580;52.562;13.418;2022-07-12T10:53:46;101461.00;;;28.30
22828;BMP180;11580;52.562;13.418;2022-07-12T10:56:18;101458.00;;;28.30
22828;BMP180;11580;52.562;13.418;2022-07-12T10:58:48;101473.00;;;28.40
22828;BMP180;11580;52.562;13.418;2022-07-12T11:01:19;101444.00;;;28.40
22828;BMP180;11580;52.562;13.418;2022-07-12T11:03:48;101468.00;;;28.50
22828;BMP180;11580;52.562;13.418;2022-07-12T11:06:19;101459.00;;;28.60
22828;BMP180;11580;52.562;13.418;2022-07-12T11:08:53;101469.00;;;28.70
22828;BMP180;11580;52.562;13.418;2022-07-12T11:11:23;101474.00;;;28.80
22828;BMP180;11580;52.562;13.418;2022-07-12T11:13:51;101472.00;;;28.80
22828;BMP180;11580;52.562;13.418;2022-07-12T11:16:19;101481.00;;;28.90
22828;BMP180;11580;52.562;13.418;2022-07-12T11:18:46;101482.00;;;29.00
22828;BMP180;11580;52.562;13.418;2022-07-12T11:21:14;101476.00;;;29.10
22828;BMP180;11580;52.562;13.418;2022-07-12T11:23:43;101478.00;;;29.20
22828;BMP180;11580;52.562;13.418;2022-07-12T11:26:12;101480.00;;;29.30
22828;BMP180;11580;52.562;13.418;2022-07-12T11:28:42;101476.00;;;29.30
22828;BMP180;11580;52.562;13.418;2022-07-12T11:31:13;101482.00;;;29.30
22828;BMP180;11580;52.562;13.418;2022-07-12T11:33:43;101480.00;;;29.30
22828;BMP180;11580;52.562;13.418;2022-07-12T11:36:13;101471.00;;;29.40
22828;BMP180;11580;52.562;13.418;2022-07-12T11:38:43;101470.00;;;29.40
22828;BMP180;11580;52.562;13.418;2022-07-12T11:41:13;101459.00;;;29.50
22828;BMP180;11580;52.562;13.418;2022-07-12T11:43:41;101471.00;;;29.50
22828;BMP180;11580;52.562;13.418;2022-07-12T11:46:09;101468.00;;;29.60
22828;BMP180;11580;52.562;13.418;2022-07-12T11:48:37;101465.00;;;29.80
22828;BMP180;11580;52.562;13.418;2022-07-12T11:51:07;101461.00;;;29.90
22828;BMP180;11580;52.562;13.418;2022-07-12T11:53:37;101465.00;;;30.00
22828;BMP180;11580;52.562;13.418;2022-07-12T11:56:08;101462.00;;;30.10
22828;BMP180;11580;52.562;13.418;2022-07-12T11:58:36;101471.00;;;30.10
22828;BMP180;11580;52.562;13.418;2022-07-12T12:01:09;101474.00;;;30.10
22828;BMP180;11580;52.562;13.418;2022-07-12T12:03:43;101458.00;;;30.10
22828;BMP180;11580;52.562;13.418;2022-07-12T12:06:11;101462.00;;;30.10
22828;BMP180;11580;52.562;13.418;2022-07-12T12:08:38;101465.00;;;30.00
22828;BMP180;11580;52.562;13.418;2022-07-12T12:11:07;101458.00;;;30.00
22828;BMP180;11580;52.562;13.418;2022-07-12T12:13:35;101455.00;;;30.00
22828;BMP180;11580;52.562;13.418;2022-07-12T12:16:04;101449.00;;;30.00
22828;BMP180;11580;52.562;13.418;2022-07-12T12:18:35;101446.00;;;30.20
22828;BMP180;11580;52.562;13.418;2022-07-12T12:21:06;101443.00;;;30.30
22828;BMP180;11580;52.562;13.418;2022-07-12T12:23:35;101461.00;;;30.40
22828;BMP180;11580;52.562;13.418;2022-07-12T12:26:16;101451.00;;;30.40
22828;BMP180;11580;52.562;13.418;2022-07-12T12:28:48;101451.00;;;30.50
22828;BMP180;11580;52.562;13.418;2022-07-12T12:31:17;101446.00;;;30.50
22828;BMP180;11580;52.562;13.418;2022-07-12T12:33:47;101454.00;;;30.60
22828;BMP180;11580;52.562;13.418;2022-07-12T12:36:21;101458.00;;;30.60
22828;BMP180;11580;52.562;13.418;2022-07-12T12:38:52;101460.00;;;30.50
22828;BMP180;11580;52.562;13.418;2022-07-12T12:41:21;101457.00;;;30.40
22828;BMP180;11580;52.562;13.418;2022-07-12T12:43:57;101453.00;;;30.40
22828;BMP180;11580;52.562;13.418;2022-07-12T12:46:43;101442.00;;;30.30
22828;BMP180;11580;52.562;13.418;2022-07-12T12:49:11;101446.00;;;30.20
22828;BMP180;11580;52.562;13.418;2022-07-12T12:51:52;101439.00;;;30.10
22828;BMP180;11580;52.562;13.418;2022-07-12T12:54:34;101444.00;;;30.20
22828;BMP180;11580;52.562;13.418;2022-07-12T12:57:04;101445.00;;;30.20
22828;BMP180;11580;52.562;13.418;2022-07-12T12:59:32;101434.00;;;30.20
22828;BMP180;11580;52.562;13.418;2022-07-12T13:02:01;101449.00;;;30.30
22828;BMP180;11580;52.562;13.418;2022-07-12T13:04:29;101434.00;;;30.30
22828;BMP180;11580;52.562;13.418;2022-07-12T13:06:56;101431.00;;;30.30
22828;BMP180;11580;52.562;13.418;2022-07-12T13:09:24;101438.00;;;30.30
22828;BMP180;11580;52.562;13.418;2022-07-12T13:11:51;101436.00;;;30.20
22828;BMP180;11580;52.562;13.418;2022-07-12T13:14:20;101434.00;;;30.20
22828;BMP180;11580;52.562;13.418;2022-07-12T13:16:47;101427.00;;;30.20
22828;BMP180;11580;52.562;13.418;2022-07-12T13:19:15;101433.00;;;30.20
22828;BMP180;11580;52.562;13.418;2022-07-12T13:21:42;101435.00;;;30.20
22828;BMP180;11580;52.562;13.418;2022-07-12T13:24:09;101427.00;;;30.10
22828;BMP180;11580;52.562;13.418;2022-07-12T13:26:37;101432.00;;;30.10
22828;BMP180;11580;52.562;13.418;2022-07-12T13:29:04;101431.00;;;30.10
22828;BMP180;11580;52.562;13.418;2022-07-12T13:31:33;101428.00;;;30.00
22828;BMP180;11580;52.562;13.418;2022-07-12T13:34:00;101425.00;;;30.10
22828;BMP180;11580;52.562;13.418;2022-07-12T13:36:27;101433.00;;;30.10
22828;BMP180;11580;52.562;13.418;2022-07-12T13:38:55;101444.00;;;30.10
22828;BMP180;11580;52.562;13.418;2022-07-12T13:41:42;101435.00;;;30.00
22828;BMP180;11580;52.562;13.418;2022-07-12T13:44:09;101427.00;;;29.90
22828;BMP180;11580;52.562;13.418;2022-07-12T13:46:38;101414.00;;;29.80
22828;BMP180;11580;52.562;13.418;2022-07-12T13:49:06;101421.00;;;29.80
22828;BMP180;11580;52.562;13.418;2022-07-12T13:51:34;101414.00;;;29.80
22828;BMP180;11580;52.562;13.418;2022-07-12T13:54:01;101418.00;;;29.90
22828;BMP180;11580;52.562;13.418;2022-07-12T13:56:29;101415.00;;;30.00